createdAt,value
2018-09-01T00:00:28.017Z,29.1
2018-09-01T00:01:18.049Z,29
2018-09-01T00:02:07.868Z,29
2018-09-01T00:02:57.896Z,29
2018-09-01T00:03:48.559Z,29
2018-09-01T00:04:38.040Z,29.1
2018-09-01T00:05:28.661Z,29.1
2018-09-01T00:06:18.475Z,29
2018-09-01T00:07:08.215Z,29
2018-09-01T00:07:58.075Z,29
2018-09-01T00:08:48.368Z,29.1
2018-09-01T00:09:38.937Z,29
2018-09-01T00:10:29.105Z,29
2018-09-01T00:11:19.865Z,29
2018-09-01T00:12:08.899Z,29
2018-09-01T00:31:33.100Z,29.1
2018-09-01T00:32:23.050Z,29
2018-09-01T00:33:13.142Z,29
2018-09-01T00:34:02.637Z,28.9
2018-09-01T00:34:53.566Z,29
2018-09-01T00:35:42.764Z,28.9
2018-09-01T00:36:32.519Z,29
2018-09-01T00:37:23.697Z,28.9
2018-09-01T00:38:13.242Z,28.9
2018-09-01T00:39:02.474Z,29
2018-09-01T00:39:53.679Z,28.9
2018-09-01T00:40:43.141Z,29
2018-09-01T00:41:34.324Z,29
2018-09-01T00:42:22.679Z,28.9
2018-09-01T00:43:14.161Z,29
2018-09-01T00:44:04.242Z,28.9
2018-09-01T00:44:52.902Z,28.9
2018-09-01T00:45:43.608Z,29
2018-09-01T00:46:34.173Z,29
2018-09-01T00:47:23.990Z,28.9
2018-09-01T00:48:14.822Z,28.9
2018-09-01T00:49:03.791Z,28.9
2018-09-01T00:49:54.716Z,29
2018-09-01T00:50:43.912Z,28.9
2018-09-01T00:51:34.789Z,28.9
2018-09-01T00:52:24.330Z,28.9
2018-09-01T00:53:14.994Z,28.9
2018-09-01T00:54:04.770Z,28.9
2018-09-01T00:54:53.788Z,29
2018-09-01T00:55:44.885Z,28.9
2018-09-01T00:56:35.207Z,28.9
2018-09-01T00:57:24.442Z,28.9
2018-09-01T00:58:14.581Z,28.9
2018-09-01T00:59:04.963Z,28.9
2018-09-01T00:59:54.359Z,28.9
2018-09-01T01:00:44.090Z,28.9
2018-09-01T01:01:35.149Z,28.9
2018-09-01T01:02:24.918Z,28.9
2018-09-01T01:03:15.670Z,28.9
2018-09-01T01:04:05.543Z,28.9
2018-09-01T01:04:55.007Z,28.9
2018-09-01T01:05:45.375Z,28.9
2018-09-01T01:06:35.140Z,28.9
2018-09-01T01:07:25.733Z,28.9
2018-09-01T01:08:15.816Z,28.9
2018-09-01T01:09:06.176Z,28.9
2018-09-01T01:09:55.728Z,28.9
2018-09-01T01:10:45.774Z,28.9
2018-09-01T01:11:35.835Z,28.9
2018-09-01T01:12:26.715Z,28.9
2018-09-01T01:13:16.237Z,28.9
2018-09-01T01:14:06.314Z,28.9
2018-09-01T01:14:55.789Z,28.9
2018-09-01T01:15:45.858Z,28.9
2018-09-01T01:16:36.764Z,28.9
2018-09-01T01:17:26.649Z,28.9
2018-09-01T01:18:16.034Z,28.9
2018-09-01T01:19:05.872Z,28.9
2018-09-01T01:19:56.492Z,28.9
2018-09-01T01:20:46.553Z,28.9
2018-09-01T01:21:36.604Z,28.9
2018-09-01T01:22:26.401Z,28.9
2018-09-01T01:23:16.981Z,28.9
2018-09-01T01:24:07.135Z,28.9
2018-09-01T01:24:57.411Z,28.9
2018-09-01T01:25:47.470Z,28.9
2018-09-01T01:26:37.274Z,28.9
2018-09-01T01:27:27.341Z,28.9
2018-09-01T01:28:17.678Z,28.9
2018-09-01T01:29:07.813Z,28.9
2018-09-01T01:29:57.295Z,28.9
2018-09-01T01:30:47.328Z,28.9
2018-09-01T01:31:37.626Z,28.9
2018-09-01T01:32:27.396Z,28.9
2018-09-01T01:33:17.204Z,28.9
2018-09-01T01:34:07.851Z,28.9
2018-09-01T01:34:57.920Z,28.9
2018-09-01T01:35:47.432Z,28.9
2018-09-01T01:36:37.443Z,28.9
2018-09-01T01:37:28.112Z,28.9
2018-09-01T01:38:18.438Z,28.9
2018-09-01T01:39:08.770Z,28.9
2018-09-01T01:39:57.736Z,28.9
2018-09-01T01:40:48.101Z,28.9
2018-09-01T01:41:38.149Z,28.9
2018-09-01T01:42:27.633Z,28.9
2018-09-01T01:43:18.263Z,28.9
2018-09-01T01:44:08.072Z,28.9
2018-09-01T01:44:58.383Z,28.9
2018-09-01T01:45:49.017Z,28.9
2018-09-01T01:46:38.817Z,28.9
2018-09-01T01:47:28.618Z,28.9
2018-09-01T01:48:18.933Z,28.9
2018-09-01T01:49:08.192Z,28.9
2018-09-01T01:49:58.230Z,28.9
2018-09-01T01:50:48.867Z,28.9
2018-09-01T01:51:39.207Z,28.9
2018-09-01T01:52:28.441Z,28.9
2018-09-01T01:53:19.317Z,28.8
2018-09-01T01:54:08.859Z,28.9
2018-09-01T01:54:59.187Z,28.9
2018-09-01T01:55:49.605Z,28.9
2018-09-01T01:56:39.332Z,28.9
2018-09-01T01:57:29.647Z,28.9
2018-09-01T01:58:18.587Z,28.8
2018-09-01T01:59:10.038Z,28.9
2018-09-01T01:59:58.794Z,28.9
2018-09-01T02:00:49.908Z,28.8
2018-09-01T02:01:39.231Z,28.9
2018-09-01T02:02:29.304Z,28.9
2018-09-01T02:03:20.413Z,28.8
2018-09-01T02:04:09.732Z,28.9
2018-09-01T02:04:58.929Z,28.8
2018-09-01T02:05:49.544Z,28.9
2018-09-01T02:06:40.197Z,28.9
2018-09-01T02:07:30.490Z,28.8
2018-09-01T02:08:20.006Z,28.9
2018-09-01T02:09:10.084Z,28.9
2018-09-01T02:10:00.129Z,28.8
2018-09-01T02:10:50.485Z,28.8
2018-09-01T02:11:40.586Z,28.8
2018-09-01T02:12:30.621Z,28.8
2018-09-01T02:13:20.206Z,28.8
2018-09-01T02:14:11.051Z,28.8
2018-09-01T02:15:00.761Z,28.8
2018-09-01T02:15:50.812Z,28.8
2018-09-01T02:16:40.058Z,28.8
2018-09-01T02:17:30.909Z,28.8
2018-09-01T02:18:20.445Z,28.8
2018-09-01T02:19:11.876Z,28.8
2018-09-01T02:20:00.871Z,28.8
2018-09-01T02:20:50.620Z,28.8
2018-09-01T02:21:41.793Z,28.8
2018-09-01T02:22:31.306Z,28.8
2018-09-01T02:23:21.379Z,28.8
2018-09-01T02:24:11.755Z,28.8
2018-09-01T02:25:01.797Z,28.8
2018-09-01T02:25:51.590Z,28.8
2018-09-01T02:26:41.942Z,28.8
2018-09-01T02:27:31.755Z,28.8
2018-09-01T02:28:22.387Z,28.8
2018-09-01T02:29:11.559Z,28.8
2018-09-01T02:30:01.697Z,28.8
2018-09-01T02:30:51.760Z,28.8
2018-09-01T02:31:41.565Z,28.8
2018-09-01T02:32:31.970Z,28.8
2018-09-01T02:33:21.887Z,28.8
2018-09-01T02:34:12.250Z,28.8
2018-09-01T02:35:02.835Z,28.8
2018-09-01T02:35:52.073Z,28.8
2018-09-01T02:36:42.177Z,28.8
2018-09-01T02:37:32.819Z,28.8
2018-09-01T02:38:22.267Z,28.8
2018-09-01T02:39:12.310Z,28.8
2018-09-01T02:40:03.214Z,28.8
2018-09-01T02:40:52.174Z,28.8
2018-09-01T02:41:42.816Z,28.8
2018-09-01T02:42:32.301Z,28.8
2018-09-01T02:43:23.247Z,28.8
2018-09-01T02:44:13.003Z,28.8
2018-09-01T02:45:03.324Z,28.8
2018-09-01T02:45:53.153Z,28.8
2018-09-01T02:46:43.776Z,28.8
2018-09-01T02:47:32.391Z,28.8
2018-09-01T02:48:22.766Z,28.8
2018-09-01T02:49:13.091Z,28.8
2018-09-01T02:50:04.006Z,28.8
2018-09-01T02:50:53.535Z,28.8
2018-09-01T02:51:43.780Z,28.8
2018-09-01T02:52:33.640Z,28.8
2018-09-01T02:53:23.998Z,28.8
2018-09-01T02:54:13.748Z,28.8
2018-09-01T02:55:04.103Z,28.8
2018-09-01T02:55:54.475Z,28.8
2018-09-01T02:56:43.951Z,28.8
2018-09-01T02:57:34.313Z,28.8
2018-09-01T02:58:23.807Z,28.8
2018-09-01T02:59:14.425Z,28.8
2018-09-01T03:00:04.537Z,28.8
2018-09-01T03:00:54.872Z,28.8
2018-09-01T03:01:44.338Z,28.8
2018-09-01T03:02:34.412Z,28.8
2018-09-01T03:03:24.183Z,28.8
2018-09-01T03:04:14.529Z,28.8
2018-09-01T03:05:05.398Z,28.8
2018-09-01T03:05:54.623Z,28.8
2018-09-01T03:06:45.002Z,28.8
2018-09-01T03:07:34.552Z,28.8
2018-09-01T03:08:24.978Z,28.8
2018-09-01T03:09:14.971Z,28.8
2018-09-01T03:10:05.559Z,28.8
2018-09-01T03:10:56.106Z,28.8
2018-09-01T03:11:45.705Z,28.8
2018-09-01T03:12:35.515Z,28.8
2018-09-01T03:13:24.757Z,28.8
2018-09-01T03:14:15.123Z,28.8
2018-09-01T03:15:05.657Z,28.8
2018-09-01T03:15:56.490Z,28.8
2018-09-01T03:16:45.509Z,28.8
2018-09-01T03:17:35.839Z,28.8
2018-09-01T03:18:25.352Z,28.8
2018-09-01T03:19:15.991Z,28.8
2018-09-01T03:20:06.342Z,28.8
2018-09-01T03:20:56.355Z,28.7
2018-09-01T03:21:46.172Z,28.7
2018-09-01T03:22:35.511Z,28.8
2018-09-01T03:23:26.105Z,28.7
2018-09-01T03:24:15.375Z,28.7
2018-09-01T03:25:05.664Z,28.8
2018-09-01T03:25:56.282Z,28.8
2018-09-01T03:26:45.816Z,28.7
2018-09-01T03:27:36.444Z,28.7
2018-09-01T03:28:26.465Z,28.7
2018-09-01T03:29:16.238Z,28.8
2018-09-01T03:30:06.089Z,28.7
2018-09-01T03:30:56.962Z,28.8
2018-09-01T03:31:45.634Z,28.7
2018-09-01T03:32:36.533Z,28.7
2018-09-01T03:33:26.596Z,28.7
2018-09-01T03:34:16.142Z,28.7
2018-09-01T03:35:06.933Z,28.7
2018-09-01T03:35:58.120Z,28.7
2018-09-01T03:36:47.338Z,28.7
2018-09-01T03:37:37.416Z,28.7
2018-09-01T03:38:27.706Z,28.7
2018-09-01T03:39:16.714Z,28.7
2018-09-01T03:40:07.314Z,28.7
2018-09-01T03:40:57.929Z,28.7
2018-09-01T03:41:47.998Z,28.7
2018-09-01T03:42:37.470Z,28.7
2018-09-01T03:43:27.258Z,28.7
2018-09-01T03:44:17.054Z,28.7
2018-09-01T03:45:07.415Z,28.7
2018-09-01T03:45:57.732Z,28.7
2018-09-01T03:46:47.850Z,28.7
2018-09-01T03:47:37.628Z,28.7
2018-09-01T03:48:28.211Z,28.7
2018-09-01T03:49:18.283Z,28.7
2018-09-01T03:50:08.380Z,28.7
2018-09-01T03:50:58.133Z,28.7
2018-09-01T03:51:48.543Z,28.7
2018-09-01T03:52:38.281Z,28.7
2018-09-01T03:53:28.657Z,28.7
2018-09-01T03:54:18.422Z,28.7
2018-09-01T03:55:08.767Z,28.7
2018-09-01T03:55:58.837Z,28.7
2018-09-01T03:56:48.894Z,28.7
2018-09-01T03:57:38.655Z,28.7
2018-09-01T03:58:29.252Z,28.7
2018-09-01T03:59:18.524Z,28.7
2018-09-01T04:00:09.159Z,28.7
2018-09-01T04:00:58.664Z,28.7
2018-09-01T04:01:49.217Z,28.7
2018-09-01T04:02:39.341Z,28.7
2018-09-01T04:03:29.087Z,28.7
2018-09-01T04:04:19.212Z,28.6
2018-09-01T04:05:09.832Z,28.6
2018-09-01T04:05:59.836Z,28.6
2018-09-01T04:06:49.908Z,28.7
2018-09-01T04:07:39.992Z,28.7
2018-09-01T04:08:30.104Z,28.6
2018-09-01T04:09:20.129Z,28.6
2018-09-01T04:10:09.896Z,28.6
2018-09-01T04:10:59.176Z,28.6
2018-09-01T04:11:49.740Z,28.6
2018-09-01T04:12:40.080Z,28.7
2018-09-01T04:13:29.326Z,28.6
2018-09-01T04:14:20.748Z,28.6
2018-09-01T04:15:10.001Z,28.7
2018-09-01T04:16:00.318Z,28.7
2018-09-01T04:16:50.662Z,28.6
2018-09-01T04:17:40.759Z,28.6
2018-09-01T04:18:30.266Z,28.6
2018-09-01T04:19:20.363Z,28.6
2018-09-01T04:20:10.949Z,28.6
2018-09-01T04:21:00.716Z,28.6
2018-09-01T04:21:50.835Z,28.6
2018-09-01T04:22:41.433Z,28.6
2018-09-01T04:23:30.687Z,28.6
2018-09-01T04:24:20.168Z,28.6
2018-09-01T04:25:10.774Z,28.6
2018-09-01T04:26:00.543Z,28.6
2018-09-01T04:26:51.448Z,28.6
2018-09-01T04:27:40.692Z,28.6
2018-09-01T04:28:31.278Z,28.6
2018-09-01T04:29:21.423Z,28.6
2018-09-01T04:30:11.172Z,28.6
2018-09-01T04:31:01.781Z,28.6
2018-09-01T04:31:51.768Z,28.6
2018-09-01T04:32:41.368Z,28.6
2018-09-01T04:33:31.400Z,28.6
2018-09-01T04:34:21.480Z,28.6
2018-09-01T04:35:12.130Z,28.6
2018-09-01T04:36:01.900Z,28.6
2018-09-01T04:36:52.494Z,28.6
2018-09-01T04:37:42.042Z,28.6
2018-09-01T04:38:32.023Z,28.6
2018-09-01T04:39:22.140Z,28.6
2018-09-01T04:40:11.901Z,28.6
2018-09-01T04:41:01.433Z,28.6
2018-09-01T04:41:52.843Z,28.6
2018-09-01T04:42:41.806Z,28.6
2018-09-01T05:00:19.047Z,28.6
2018-09-01T05:01:13.151Z,28.6
2018-09-01T05:01:59.510Z,28.6
2018-09-01T05:02:50.157Z,28.6
2018-09-01T05:03:39.394Z,28.6
2018-09-01T05:04:30.313Z,28.6
2018-09-01T05:05:19.184Z,28.6
2018-09-01T05:06:10.636Z,28.6
2018-09-01T05:06:59.441Z,28.6
2018-09-01T05:07:50.272Z,28.6
2018-09-01T05:08:39.428Z,28.6
2018-09-01T05:09:30.374Z,28.6
2018-09-01T05:10:20.382Z,28.6
2018-09-01T05:11:10.479Z,28.6
2018-09-01T05:12:00.275Z,28.6
2018-09-01T05:12:50.331Z,28.6
2018-09-01T05:13:40.255Z,28.6
2018-09-01T05:14:31.301Z,28.6
2018-09-01T05:15:21.050Z,28.6
2018-09-01T05:16:10.642Z,28.6
2018-09-01T05:17:00.411Z,28.6
2018-09-01T05:17:50.961Z,28.6
2018-09-01T05:18:41.098Z,28.6
2018-09-01T05:19:31.667Z,28.6
2018-09-01T05:20:20.876Z,28.6
2018-09-01T05:21:10.373Z,28.6
2018-09-01T05:22:00.751Z,28.6
2018-09-01T05:22:51.630Z,28.6
2018-09-01T05:23:41.697Z,28.6
2018-09-01T05:24:31.810Z,28.6
2018-09-01T05:25:21.618Z,28.6
2018-09-01T05:26:11.667Z,28.6
2018-09-01T05:27:01.695Z,28.6
2018-09-01T05:27:52.019Z,28.6
2018-09-01T05:28:41.552Z,28.6
2018-09-01T05:29:31.955Z,28.6
2018-09-01T05:30:21.962Z,28.6
2018-09-01T05:31:12.238Z,28.6
2018-09-01T05:32:02.104Z,28.6
2018-09-01T05:32:51.719Z,28.6
2018-09-01T05:33:42.252Z,28.6
2018-09-01T05:34:31.511Z,28.6
2018-09-01T05:35:21.500Z,28.6
2018-09-01T05:36:12.288Z,28.6
2018-09-01T05:37:02.527Z,28.6
2018-09-01T05:37:52.309Z,28.6
2018-09-01T05:38:42.326Z,28.6
2018-09-01T05:39:32.962Z,28.6
2018-09-01T05:40:22.499Z,28.6
2018-09-01T05:41:12.751Z,28.6
2018-09-01T05:42:02.549Z,28.6
2018-09-01T05:42:52.729Z,28.6
2018-09-01T05:43:43.731Z,28.6
2018-09-01T05:44:33.069Z,28.6
2018-09-01T05:45:23.412Z,28.6
2018-09-01T05:46:12.982Z,28.6
2018-09-01T05:47:03.781Z,28.6
2018-09-01T05:47:53.316Z,28.6
2018-09-01T05:48:43.162Z,28.6
2018-09-01T05:49:32.733Z,28.6
2018-09-01T05:50:23.892Z,28.6
2018-09-01T05:51:13.678Z,28.6
2018-09-01T05:52:03.961Z,28.6
2018-09-01T05:52:53.744Z,28.6
2018-09-01T05:53:43.781Z,28.6
2018-09-01T05:54:33.853Z,28.5
2018-09-01T05:55:23.641Z,28.6
2018-09-01T05:56:13.175Z,28.6
2018-09-01T05:57:03.743Z,28.6
2018-09-01T05:57:54.384Z,28.6
2018-09-01T05:58:43.892Z,28.6
2018-09-01T05:59:34.806Z,28.6
2018-09-01T06:00:24.280Z,28.5
2018-09-01T06:01:13.922Z,28.6
2018-09-01T06:02:04.977Z,28.6
2018-09-01T06:02:54.778Z,28.6
2018-09-01T06:03:44.091Z,28.6
2018-09-01T06:04:34.335Z,28.6
2018-09-01T06:05:24.385Z,28.6
2018-09-01T06:06:16.662Z,28.6
2018-09-01T06:07:05.160Z,28.6
2018-09-01T06:07:54.936Z,28.5
2018-09-01T06:08:45.226Z,28.6
2018-09-01T06:09:35.277Z,28.6
2018-09-01T06:10:24.771Z,28.6
2018-09-01T06:11:15.377Z,28.6
2018-09-01T06:12:05.406Z,28.6
2018-09-01T06:12:55.472Z,28.6
2018-09-01T06:13:44.452Z,28.6
2018-09-01T06:14:35.085Z,28.6
2018-09-01T06:15:25.154Z,28.6
2018-09-01T06:16:14.787Z,28.5
2018-09-01T06:17:05.319Z,28.5
2018-09-01T06:17:57.456Z,28.5
2018-09-01T06:18:45.714Z,28.5
2018-09-01T06:19:35.282Z,28.6
2018-09-01T06:20:25.544Z,28.6
2018-09-01T06:21:15.346Z,28.6
2018-09-01T06:22:06.240Z,28.6
2018-09-01T06:22:56.539Z,28.6
2018-09-01T06:23:46.295Z,28.5
2018-09-01T06:24:36.209Z,28.6
2018-09-01T06:25:26.300Z,28.6
2018-09-01T06:26:15.759Z,28.5
2018-09-01T06:27:06.385Z,28.5
2018-09-01T06:27:56.436Z,28.5
2018-09-01T06:28:46.458Z,28.6
2018-09-01T06:29:36.577Z,28.6
2018-09-01T06:30:26.931Z,31.7
2018-09-01T06:31:16.900Z,37.3
2018-09-01T06:32:06.767Z,39.1
2018-09-01T06:32:57.816Z,41.8
2018-09-01T06:33:47.163Z,42.9
2018-09-01T06:34:36.711Z,42.4
2018-09-01T06:35:25.877Z,41.2
2018-09-01T06:36:17.143Z,40.4
2018-09-01T06:37:06.728Z,40
2018-09-01T06:37:57.739Z,39.7
2018-09-01T06:38:47.281Z,39.5
2018-09-01T06:39:36.820Z,39.3
2018-09-01T06:40:27.195Z,39.1
2018-09-01T06:41:16.938Z,38.8
2018-09-01T06:42:07.080Z,38.6
2018-09-01T06:42:58.580Z,38.4
2018-09-01T06:43:47.890Z,38.2
2018-09-01T06:44:37.681Z,38
2018-09-01T06:45:28.028Z,38.9
2018-09-01T06:46:16.968Z,41.8
2018-09-01T06:47:07.877Z,43
2018-09-01T06:47:57.684Z,44.8
2018-09-01T06:48:47.405Z,45.6
2018-09-01T06:49:38.074Z,45.8
2018-09-01T06:50:27.535Z,45.9
2018-09-01T06:51:18.222Z,45.9
2018-09-01T06:52:08.283Z,46.1
2018-09-01T06:52:58.034Z,46.4
2018-09-01T06:53:47.822Z,46.6
2018-09-01T06:54:38.247Z,46.9
2018-09-01T06:55:27.726Z,47.1
2018-09-01T06:56:18.036Z,47.2
2018-09-01T06:57:08.691Z,47.3
2018-09-01T06:57:58.391Z,47.4
2018-09-01T06:58:49.279Z,47.6
2018-09-01T06:59:38.554Z,47.7
2018-09-01T07:00:28.343Z,47.8
2018-09-01T07:01:19.294Z,48
2018-09-01T07:02:08.771Z,48.1
2018-09-01T07:02:58.837Z,48.3
2018-09-01T07:03:49.669Z,48.4
2018-09-01T07:04:39.266Z,48.5
2018-09-01T07:05:27.883Z,48.6
2018-09-01T07:06:19.390Z,48.8
2018-09-01T07:07:09.718Z,48.9
2018-09-01T07:07:58.622Z,48.9
2018-09-01T07:08:50.683Z,49.1
2018-09-01T07:09:39.573Z,49.2
2018-09-01T07:10:29.464Z,49.3
2018-09-01T07:11:19.751Z,49.4
2018-09-01T07:12:08.973Z,49.5
2018-09-01T07:12:59.636Z,49.6
2018-09-01T07:13:50.263Z,49.7
2018-09-01T07:14:39.752Z,49.8
2018-09-01T07:15:30.073Z,49.9
2018-09-01T07:16:19.850Z,50
2018-09-01T07:17:09.158Z,50.1
2018-09-01T07:17:59.993Z,50.3
2018-09-01T07:18:50.079Z,50.3
2018-09-01T07:19:40.378Z,50.4
2018-09-01T07:20:30.393Z,50.6
2018-09-01T07:21:20.247Z,50.6
2018-09-01T07:22:10.630Z,50.8
2018-09-01T07:23:00.692Z,50.8
2018-09-01T07:23:49.949Z,50.9
2018-09-01T07:24:41.046Z,51.1
2018-09-01T07:25:30.818Z,51.2
2018-09-01T07:26:20.945Z,51.3
2018-09-01T07:27:09.955Z,51.4
2018-09-01T07:28:00.744Z,51.5
2018-09-01T07:28:51.617Z,51.6
2018-09-01T07:29:41.457Z,51.7
2018-09-01T07:30:34.291Z,51.8
2018-09-01T07:32:11.652Z,52.1
2018-09-01T07:33:01.517Z,52.1
2018-09-01T07:33:51.694Z,52.3
2018-09-01T07:35:32.244Z,52.5
2018-09-01T07:36:21.222Z,52.6
2018-09-01T07:37:12.039Z,52.7
2018-09-01T07:38:01.808Z,52.8
2018-09-01T07:38:51.916Z,52.9
2018-09-01T07:39:41.666Z,53.1
2018-09-01T07:40:32.258Z,53.2
2018-09-01T07:41:21.791Z,53.3
2018-09-01T07:42:11.609Z,53.4
2018-09-01T07:43:01.462Z,53.5
2018-09-01T07:43:51.249Z,53.6
2018-09-01T07:44:42.109Z,53.7
2018-09-01T07:45:32.135Z,53.8
2018-09-01T07:46:21.699Z,53.9
2018-09-01T07:47:12.144Z,54.1
2018-09-01T07:48:02.034Z,54.2
2018-09-01T07:48:52.949Z,54.3
2018-09-01T07:49:42.779Z,54.4
2018-09-01T07:50:33.085Z,54.5
2018-09-01T07:51:22.673Z,54.6
2018-09-01T07:52:12.676Z,54.7
2018-09-01T07:53:02.950Z,54.8
2018-09-01T07:53:52.783Z,54.9
2018-09-01T07:54:43.706Z,55.1
2018-09-01T07:55:33.203Z,55.1
2018-09-01T07:56:24.022Z,55.3
2018-09-01T07:57:13.383Z,55.4
2018-09-01T07:58:03.401Z,55.5
2018-09-01T07:58:52.953Z,55.7
2018-09-01T07:59:43.748Z,55.8
2018-09-01T08:00:33.310Z,55.9
2018-09-01T08:01:23.648Z,56
2018-09-01T08:02:13.725Z,56.1
2018-09-01T08:03:02.965Z,56.2
2018-09-01T08:03:54.402Z,56.3
2018-09-01T08:04:43.153Z,56.4
2018-09-01T08:05:33.725Z,56.6
2018-09-01T08:06:24.363Z,56.7
2018-09-01T08:07:13.785Z,56.8
2018-09-01T08:08:04.472Z,56.9
2018-09-01T08:08:52.983Z,57
2018-09-01T08:09:43.977Z,57.1
2018-09-01T08:10:33.791Z,57.2
2018-09-01T08:11:24.439Z,57.3
2018-09-01T08:12:14.227Z,57.4
2018-09-01T08:13:04.624Z,57.6
2018-09-01T08:13:56.810Z,57.7
2018-09-01T08:14:46.642Z,57.8
2018-09-01T08:15:33.850Z,57.9
2018-09-01T08:16:26.246Z,58
2018-09-01T08:17:14.644Z,58.1
2018-09-01T08:18:04.974Z,58.2
2018-09-01T08:18:53.969Z,58.3
2018-09-01T08:19:44.769Z,58.4
2018-09-01T08:20:34.308Z,58.5
2018-09-01T08:21:25.249Z,58.6
2018-09-01T08:22:13.917Z,58.8
2018-09-01T08:23:04.476Z,58.8
2018-09-01T08:23:55.130Z,58.9
2018-09-01T08:24:45.225Z,59.1
2018-09-01T08:25:35.551Z,59.1
2018-09-01T08:26:25.346Z,59.3
2018-09-01T08:27:15.394Z,59.4
2018-09-01T08:28:06.017Z,59.4
2018-09-01T08:28:55.801Z,59.6
2018-09-01T08:29:45.018Z,59.7
2018-09-01T08:30:35.463Z,59.8
2018-09-01T08:31:24.935Z,59.9
2018-09-01T08:32:15.580Z,59.9
2018-09-01T08:33:05.540Z,60.1
2018-09-01T08:33:56.765Z,60.1
2018-09-01T08:34:46.552Z,60.3
2018-09-01T08:35:36.575Z,60.4
2018-09-01T08:36:26.098Z,60.5
2018-09-01T08:37:15.697Z,60.5
2018-09-01T08:38:06.224Z,60.6
2018-09-01T08:38:56.563Z,60.8
2018-09-01T08:39:46.345Z,60.8
2018-09-01T08:40:36.150Z,60.9
2018-09-01T08:41:26.482Z,61
2018-09-01T08:42:16.872Z,61.1
2018-09-01T08:43:06.388Z,61.1
2018-09-01T08:43:56.673Z,61.2
2018-09-01T08:44:46.536Z,61.3
2018-09-01T08:45:36.829Z,61.3
2018-09-01T08:46:26.883Z,61.4
2018-09-01T08:47:16.707Z,61.5
2018-09-01T08:48:07.294Z,61.5
2018-09-01T08:48:57.391Z,61.6
2018-09-01T08:49:47.436Z,61.6
2018-09-01T08:50:38.031Z,61.7
2018-09-01T08:51:27.569Z,61.8
2018-09-01T08:52:17.336Z,61.9
2018-09-01T08:53:07.103Z,61.9
2018-09-01T08:53:58.059Z,62
2018-09-01T08:54:47.341Z,62.1
2018-09-01T08:55:37.597Z,62.1
2018-09-01T08:56:28.124Z,62.2
2018-09-01T08:57:17.456Z,62.3
2018-09-01T08:58:08.383Z,62.3
2018-09-01T09:14:53.097Z,63.6
2018-09-01T09:15:56.670Z,63.6
2018-09-01T09:16:31.129Z,63.6
2018-09-01T09:17:21.769Z,63.7
2018-09-01T09:18:12.043Z,63.8
2018-09-01T09:19:02.447Z,63.8
2018-09-01T09:19:51.629Z,63.8
2018-09-01T09:20:42.858Z,63.9
2018-09-01T09:21:33.275Z,63.9
2018-09-01T09:22:22.134Z,64.1
2018-09-01T09:23:27.811Z,64.1
2018-09-01T09:24:03.933Z,64.3
2018-09-01T09:24:52.562Z,64.3
2018-09-01T09:25:42.869Z,64.3
2018-09-01T09:26:32.616Z,64.4
2018-09-01T09:27:23.467Z,64.4
2018-09-01T09:28:12.535Z,64.6
2018-09-01T09:29:02.801Z,64.6
2018-09-01T09:30:08.296Z,64.7
2018-09-01T09:30:44.161Z,64.8
2018-09-01T09:31:33.249Z,64.8
2018-09-01T09:32:23.781Z,64.8
2018-09-01T09:33:13.151Z,64.9
2018-09-01T09:34:03.667Z,64.9
2018-09-01T09:35:08.016Z,65
2018-09-01T09:35:58.113Z,65.1
2018-09-01T09:36:49.141Z,65.1
2018-09-01T09:37:24.314Z,65.2
2018-09-01T09:38:28.119Z,65.3
2018-09-01T09:39:03.456Z,65.3
2018-09-01T09:39:54.346Z,65.3
2018-09-01T09:40:44.549Z,65.4
2018-09-01T09:41:48.436Z,65.4
2018-09-01T09:42:25.138Z,65.5
2018-09-01T09:43:13.291Z,65.5
2018-09-01T09:44:04.146Z,65.6
2018-09-01T09:44:53.866Z,65.6
2018-09-01T09:45:44.729Z,65.8
2018-09-01T09:46:48.312Z,65.8
2018-09-01T09:47:24.628Z,65.9
2018-09-01T09:48:28.582Z,65.9
2018-09-01T09:49:04.541Z,66
2018-09-01T09:49:54.366Z,66.1
2018-09-01T09:50:59.272Z,66.1
2018-09-01T09:51:34.691Z,66.1
2018-09-01T09:52:40.164Z,66.2
2018-09-01T09:53:15.210Z,66.3
2018-09-01T09:54:04.900Z,66.3
2018-09-01T09:54:54.983Z,66.4
2018-09-01T09:55:44.987Z,66.4
2018-09-01T09:56:49.714Z,66.5
2018-09-01T09:57:24.844Z,66.6
2018-09-01T09:58:30.812Z,66.6
2018-09-01T09:59:05.285Z,66.7
2018-09-01T09:59:55.841Z,66.7
2018-09-01T10:00:45.083Z,66.8
2018-09-01T10:01:36.011Z,66.8
2018-09-01T10:02:26.418Z,66.9
2018-09-01T10:03:16.122Z,66.9
2018-09-01T10:04:06.164Z,67
2018-09-01T10:04:55.991Z,67
2018-09-01T10:05:46.669Z,67.1
2018-09-01T10:06:51.170Z,67.2
2018-09-01T10:07:25.580Z,67.3
2018-09-01T10:08:15.986Z,67.3
2018-09-01T10:09:06.124Z,67.3
2018-09-01T10:10:10.171Z,67.4
2018-09-01T10:10:45.957Z,67.4
2018-09-01T10:11:36.544Z,67.5
2018-09-01T10:12:26.658Z,67.5
2018-09-01T10:13:17.376Z,67.6
2018-09-01T10:14:06.879Z,67.6
2018-09-01T10:14:56.271Z,67.7
2018-09-01T10:15:46.864Z,67.7
2018-09-01T10:16:37.059Z,67.8
2018-09-01T10:17:27.706Z,67.8
2018-09-01T10:18:16.256Z,67.9
2018-09-01T10:19:06.877Z,67.9
2018-09-01T10:19:56.992Z,67.9
2018-09-01T10:20:47.481Z,68.1
2018-09-01T10:21:37.563Z,68.1
2018-09-01T10:22:42.281Z,68.1
2018-09-01T10:23:17.172Z,68.2
2018-09-01T10:24:21.058Z,68.3
2018-09-01T10:25:12.211Z,68.3
2018-09-01T10:25:47.581Z,68.3
2018-09-01T10:26:53.082Z,68.4
2018-09-01T10:27:27.193Z,68.4
2018-09-01T10:28:32.419Z,68.4
2018-09-01T10:29:21.666Z,68.6
2018-09-01T10:31:03.146Z,68.6
2018-09-01T10:31:38.314Z,68.7
2018-09-01T10:32:27.283Z,68.7
2018-09-01T10:33:18.491Z,68.8
2018-09-01T10:34:09.390Z,68.8
2018-09-01T10:34:57.643Z,68.9
2018-09-01T10:35:48.592Z,68.9
2018-09-01T10:36:38.695Z,68.9
2018-09-01T10:37:57.737Z,68.9
2018-09-01T10:38:34.324Z,69
2018-09-01T10:39:08.640Z,69.1
2018-09-01T10:39:58.724Z,69.1
2018-09-01T10:40:48.233Z,69.1
2018-09-01T10:41:38.610Z,69.2
2018-09-01T10:42:29.278Z,69.3
2018-09-01T10:43:20.268Z,69.3
2018-09-01T10:44:24.395Z,69.3
2018-09-01T10:45:13.780Z,69.4
2018-09-01T10:46:04.687Z,69.4
2018-09-01T10:46:39.003Z,69.4
2018-09-01T10:47:29.080Z,69.4
2018-09-01T10:48:48.977Z,69.5
2018-09-01T10:49:09.463Z,69.6
2018-09-01T10:49:59.813Z,69.6
2018-09-01T10:50:50.018Z,69.6
2018-09-01T10:51:53.767Z,69.7
2018-09-01T10:52:45.337Z,69.8
2018-09-01T10:53:19.538Z,69.8
2018-09-01T10:54:09.804Z,69.8
2018-09-01T10:55:00.395Z,69.9
2018-09-01T10:56:40.446Z,69.9
2018-09-01T10:57:44.937Z,69.9
2018-09-01T10:58:20.604Z,70.1
2018-09-01T10:59:14.325Z,70.1
2018-09-01T11:00:00.520Z,70.1
2018-09-01T11:00:50.263Z,70.1
2018-09-01T11:01:54.729Z,70.2
2018-09-01T11:03:01.607Z,70.2
2018-09-01T11:03:20.000Z,70.3
2018-09-01T11:04:26.913Z,70.3
2018-09-01T11:05:00.718Z,70.3
2018-09-01T11:05:50.852Z,70.3
2018-09-01T11:06:55.511Z,70.4
2018-09-01T11:07:30.925Z,70.4
2018-09-01T11:08:20.709Z,70.4
2018-09-01T11:09:24.833Z,70.5
2018-09-01T11:10:00.868Z,70.6
2018-09-01T11:10:51.007Z,70.6
2018-09-01T11:11:40.441Z,70.6
2018-09-01T11:12:30.496Z,70.6
2018-09-01T11:13:20.619Z,70.7
2018-09-01T11:14:11.867Z,70.8
2018-09-01T11:15:00.627Z,70.8
2018-09-01T11:15:51.064Z,70.8
2018-09-01T11:16:41.222Z,70.8
2018-09-01T11:17:31.504Z,70.9
2018-09-01T11:18:21.849Z,70.9
2018-09-01T11:19:12.039Z,70.9
2018-09-01T11:20:02.041Z,70.9
2018-09-01T11:21:07.906Z,70.9
2018-09-01T11:22:31.397Z,71
2018-09-01T11:24:31.778Z,71
2018-09-01T11:25:07.579Z,71.1
2018-09-01T11:25:57.155Z,71.1
2018-09-01T11:26:46.406Z,71.1
2018-09-01T11:27:37.745Z,71.1
2018-09-01T11:28:27.601Z,71.1
2018-09-01T11:29:17.098Z,71.2
2018-09-01T11:30:07.236Z,71.2
2018-09-01T11:31:11.097Z,71.2
2018-09-01T11:32:02.473Z,71.3
2018-09-01T11:32:37.131Z,71.3
2018-09-01T11:33:58.027Z,71.3
2018-09-01T11:34:17.738Z,71.3
2018-09-01T11:35:23.133Z,71.4
2018-09-01T11:35:57.186Z,71.4
2018-09-01T11:36:47.896Z,71.4
2018-09-01T11:37:38.023Z,71.4
2018-09-01T11:38:28.116Z,71.5
2018-09-01T11:39:18.117Z,71.5
2018-09-01T11:40:22.758Z,71.5
2018-09-01T11:40:57.955Z,71.6
2018-09-01T11:41:48.798Z,71.6
2018-09-01T11:42:39.698Z,71.6
2018-09-01T11:43:27.803Z,71.6
2018-09-01T11:44:32.787Z,71.7
2018-09-01T11:45:08.308Z,71.6
2018-09-01T11:46:13.115Z,71.7
2018-09-01T11:47:02.848Z,71.7
2018-09-01T11:47:38.348Z,71.7
2018-09-01T11:48:29.468Z,71.7
2018-09-01T11:49:19.152Z,71.8
2018-09-01T11:50:09.663Z,71.8
2018-09-01T11:50:59.595Z,71.8
2018-09-01T11:51:48.859Z,71.9
2018-09-01T11:52:39.430Z,71.9
2018-09-01T11:53:44.452Z,71.9
2018-09-01T11:54:33.710Z,71.9
2018-09-01T11:55:09.295Z,71.9
2018-09-01T11:55:59.140Z,71.9
2018-09-01T11:56:49.961Z,71.9
2018-09-01T11:57:39.375Z,71.9
2018-09-01T11:58:29.618Z,72
2018-09-01T11:59:34.180Z,72
2018-09-01T12:00:09.347Z,72
2018-09-01T12:01:50.786Z,72.1
2018-09-01T12:02:40.194Z,72.1
2018-09-01T12:03:44.878Z,72.1
2018-09-01T12:04:34.012Z,72.1
2018-09-01T12:05:09.968Z,72.1
2018-09-01T12:06:00.493Z,72.1